createdAt,value
2023-04-28T00:01:13.993Z,88.90
2023-04-28T00:03:40.817Z,88.80
2023-04-28T00:06:07.747Z,88.70
2023-04-28T00:08:35.755Z,89.30
2023-04-28T00:11:02.481Z,89.50
2023-04-28T00:13:29.270Z,89.30
2023-04-28T00:15:56.012Z,89.30
2023-04-28T00:18:22.863Z,90.10
2023-04-28T00:20:49.623Z,89.50
2023-04-28T00:23:16.312Z,89.60
2023-04-28T00:25:44.329Z,89.10
2023-04-28T00:28:11.677Z,88.20
2023-04-28T00:30:40.768Z,87.70
2023-04-28T00:33:07.517Z,89.40
2023-04-28T00:35:34.319Z,90.10
2023-04-28T00:38:01.030Z,90.40
2023-04-28T00:40:33.280Z,90.40
2023-04-28T00:43:01.325Z,90.00
2023-04-28T00:45:28.143Z,89.00
2023-04-28T00:47:55.359Z,88.40
2023-04-28T00:50:22.248Z,87.30
2023-04-28T00:52:49.148Z,87.30
2023-04-28T00:55:16.928Z,87.60
2023-04-28T00:57:43.788Z,88.00
2023-04-28T01:00:12.854Z,88.20
2023-04-28T01:02:39.736Z,88.30
2023-04-28T01:05:08.599Z,88.90
2023-04-28T01:07:35.366Z,89.30
2023-04-28T01:10:03.186Z,89.10
2023-04-28T01:12:29.924Z,90.00
2023-04-28T01:14:56.771Z,89.50
2023-04-28T01:17:25.079Z,90.00
2023-04-28T01:19:51.818Z,90.10
2023-04-28T01:22:18.643Z,90.60
2023-04-28T01:24:46.671Z,90.40
2023-04-28T01:27:13.401Z,90.10
2023-04-28T01:29:40.107Z,90.90
2023-04-28T01:32:06.848Z,90.50
2023-04-28T01:34:33.560Z,90.70
2023-04-28T01:37:00.284Z,90.60
2023-04-28T01:39:27.048Z,90.80
2023-04-28T01:41:55.106Z,90.40
2023-04-28T01:44:21.806Z,91.40
2023-04-28T01:46:48.504Z,91.20
2023-04-28T01:49:15.262Z,91.10
2023-04-28T01:51:41.992Z,91.10
2023-04-28T01:54:08.735Z,91.20
2023-04-28T01:56:35.433Z,91.40
2023-04-28T01:59:03.486Z,91.50
2023-04-28T02:01:30.258Z,91.30
2023-04-28T02:03:57.261Z,90.80
2023-04-28T02:06:24.190Z,90.60
2023-04-28T02:08:50.895Z,90.80
2023-04-28T02:11:17.642Z,90.80
2023-04-28T02:13:44.355Z,90.90
2023-04-28T02:16:12.489Z,90.80
2023-04-28T02:18:39.235Z,91.10
2023-04-28T02:21:09.314Z,91.10
2023-04-28T02:23:36.054Z,91.20
2023-04-28T02:26:03.029Z,91.20
2023-04-28T02:28:29.773Z,91.60
2023-04-28T02:31:04.160Z,91.70
2023-04-28T02:33:32.254Z,91.80
2023-04-28T02:35:59.364Z,91.50
2023-04-28T02:38:26.217Z,91.80
2023-04-28T02:40:58.296Z,92.30
2023-04-28T02:43:25.005Z,92.40
2023-04-28T02:45:51.946Z,91.80
2023-04-28T02:48:18.808Z,91.60
2023-04-28T02:50:46.876Z,91.90
2023-04-28T02:53:13.730Z,92.20
2023-04-28T02:55:40.431Z,92.30
2023-04-28T02:58:07.316Z,92.70
2023-04-28T03:00:34.241Z,91.90
2023-04-28T03:03:01.147Z,92.50
2023-04-28T03:05:28.072Z,92.50
2023-04-28T03:07:56.188Z,92.20
2023-04-28T03:10:22.889Z,92.60
2023-04-28T03:12:49.662Z,92.90
2023-04-28T03:15:16.516Z,93.10
2023-04-28T03:17:43.382Z,92.70
2023-04-28T03:20:11.257Z,93.00
2023-04-28T03:22:37.985Z,92.70
2023-04-28T03:25:06.613Z,92.30
2023-04-28T03:27:33.324Z,92.90
2023-04-28T03:30:00.056Z,93.80
2023-04-28T03:32:26.813Z,92.90
2023-04-28T03:34:53.552Z,93.90
2023-04-28T03:37:20.273Z,94.80
2023-04-28T03:39:47.025Z,93.70
2023-04-28T03:42:15.056Z,94.00
2023-04-28T03:44:41.777Z,94.20
2023-04-28T03:47:08.509Z,94.80
2023-04-28T03:49:35.293Z,94.50
2023-04-28T03:52:02.016Z,94.30
2023-04-28T03:54:28.737Z,95.10
2023-04-28T03:56:55.483Z,95.70
2023-04-28T03:59:23.607Z,95.70
2023-04-28T04:01:50.351Z,95.70
2023-04-28T04:04:17.964Z,97.10
2023-04-28T04:06:45.182Z,96.90
2023-04-28T04:09:11.896Z,97.00
2023-04-28T04:11:38.647Z,97.60
2023-04-28T04:14:05.354Z,99.40
2023-04-28T04:16:33.461Z,99.20
2023-04-28T04:19:00.177Z,99.20
2023-04-28T04:21:26.869Z,98.60
2023-04-28T04:23:53.701Z,98.60
2023-04-28T04:26:20.817Z,99.00
2023-04-28T04:28:47.540Z,99.90
2023-04-28T04:31:14.302Z,98.70
2023-04-28T04:33:42.421Z,99.00
2023-04-28T04:36:09.374Z,99.30
2023-04-28T04:38:36.140Z,99.60
2023-04-28T04:41:02.908Z,99.00
2023-04-28T04:43:29.657Z,99.10
2023-04-28T04:45:56.586Z,98.90
2023-04-28T04:48:23.378Z,99.60
2023-04-28T04:50:51.444Z,99.90
2023-04-28T04:53:18.378Z,99.90
2023-04-28T04:55:45.137Z,99.90
2023-04-28T04:58:11.905Z,99.90
2023-04-28T05:00:38.684Z,99.90
2023-04-28T05:03:05.639Z,99.90
2023-04-28T05:05:32.689Z,99.90
2023-04-28T05:08:00.884Z,99.90
2023-04-28T05:10:27.599Z,99.90
2023-04-28T05:12:54.371Z,99.90
2023-04-28T05:15:21.096Z,99.90
2023-04-28T05:17:47.973Z,99.90
2023-04-28T05:20:14.810Z,99.90
2023-04-28T05:22:41.564Z,99.90
2023-04-28T05:25:10.116Z,99.90
2023-04-28T05:27:36.846Z,99.90
2023-04-28T05:30:04.160Z,99.90
2023-04-28T05:32:30.986Z,99.90
2023-04-28T05:34:57.762Z,99.90
2023-04-28T05:37:24.576Z,99.90
2023-04-28T05:39:51.291Z,99.90
2023-04-28T05:42:19.361Z,99.90
2023-04-28T05:44:46.069Z,99.90
2023-04-28T05:47:12.805Z,99.90
2023-04-28T05:49:39.498Z,99.90
2023-04-28T05:52:06.526Z,99.90
2023-04-28T05:54:33.253Z,99.90
2023-04-28T05:57:01.483Z,99.90
2023-04-28T05:59:29.750Z,99.90
2023-04-28T06:01:56.479Z,99.90
2023-04-28T06:04:23.845Z,99.90
2023-04-28T06:06:50.941Z,99.90
2023-04-28T06:09:17.785Z,99.90
2023-04-28T06:11:44.777Z,99.90
2023-04-28T06:14:11.500Z,99.90
2023-04-28T06:16:39.578Z,99.90
2023-04-28T06:19:06.285Z,99.90
2023-04-28T06:21:33.044Z,99.90
2023-04-28T06:23:59.793Z,99.90
2023-04-28T06:26:26.628Z,99.90
2023-04-28T06:28:53.371Z,99.90
2023-04-28T06:31:20.121Z,99.90
2023-04-28T06:33:48.292Z,99.90
2023-04-28T06:36:15.064Z,99.90
2023-04-28T06:38:41.794Z,99.90
2023-04-28T06:41:08.485Z,99.90
2023-04-28T06:43:35.330Z,99.90
2023-04-28T06:46:02.205Z,99.90
2023-04-28T06:48:29.004Z,99.90
2023-04-28T06:50:57.117Z,99.90
2023-04-28T06:53:23.947Z,99.90
2023-04-28T06:55:50.768Z,99.90
2023-04-28T06:58:17.539Z,99.90
2023-04-28T07:00:44.363Z,99.90
2023-04-28T07:03:11.623Z,99.90
2023-04-28T07:05:38.417Z,99.90
2023-04-28T07:08:06.704Z,99.90
2023-04-28T07:10:33.426Z,99.90
2023-04-28T07:13:00.138Z,99.90
2023-04-28T07:15:26.983Z,99.90
2023-04-28T07:17:53.835Z,99.90
2023-04-28T07:20:20.678Z,99.90
2023-04-28T07:22:47.397Z,99.90
2023-04-28T07:25:15.572Z,99.90
2023-04-28T07:27:42.399Z,99.90
2023-04-28T07:30:25.670Z,99.90
2023-04-28T07:32:53.833Z,99.90
2023-04-28T07:35:20.678Z,99.90
2023-04-28T07:37:47.438Z,99.90
2023-04-28T07:40:16.355Z,99.90
2023-04-28T07:42:43.260Z,99.90
2023-04-28T07:45:11.075Z,99.90
2023-04-28T07:47:38.361Z,99.90
2023-04-28T07:50:06.016Z,99.90
2023-04-28T07:52:33.103Z,99.90
2023-04-28T07:54:59.885Z,99.90
2023-04-28T07:57:27.976Z,99.90
2023-04-28T07:59:54.747Z,99.90
2023-04-28T08:02:21.632Z,99.90
2023-04-28T08:04:48.581Z,99.90
2023-04-28T08:07:15.452Z,99.90
2023-04-28T08:09:42.204Z,99.90
2023-04-28T08:12:08.917Z,99.90
2023-04-28T08:14:36.982Z,99.90
2023-04-28T08:17:03.727Z,99.90
2023-04-28T08:19:30.525Z,99.90
2023-04-28T08:21:57.262Z,99.90
2023-04-28T08:24:23.965Z,99.90
2023-04-28T08:26:50.737Z,99.90
2023-04-28T08:29:17.489Z,99.90
2023-04-28T08:31:45.640Z,99.90
2023-04-28T08:34:13.932Z,99.90
2023-04-28T08:36:41.994Z,99.70
2023-04-28T08:39:08.705Z,99.70
2023-04-28T08:41:38.646Z,99.70
2023-04-28T08:44:08.546Z,99.70
2023-04-28T08:46:35.960Z,99.90
2023-04-28T08:49:05.694Z,99.70
2023-04-28T08:51:34.408Z,99.60
2023-04-28T08:54:29.848Z,99.70
2023-04-28T08:56:50.064Z,99.90
2023-04-28T08:59:17.275Z,99.90
2023-04-28T09:01:44.009Z,99.90
2023-04-28T09:04:14.397Z,99.90
2023-04-28T09:06:41.565Z,99.90
2023-04-28T09:09:21.754Z,99.90
2023-04-28T09:11:55.895Z,99.90
2023-04-28T09:14:22.881Z,99.90
2023-04-28T09:16:50.074Z,99.90
2023-04-28T09:19:18.437Z,99.90
2023-04-28T09:21:49.912Z,99.90
2023-04-28T09:24:35.138Z,99.90
2023-04-28T09:27:03.462Z,99.90
2023-04-28T09:29:30.647Z,99.90
2023-04-28T09:32:13.412Z,99.90
2023-04-28T09:34:45.616Z,99.90
2023-04-28T09:37:16.865Z,99.90
2023-04-28T09:39:44.899Z,99.90
2023-04-28T09:42:30.433Z,99.90
2023-04-28T09:44:57.636Z,99.90
2023-04-28T09:47:24.424Z,99.90
2023-04-28T09:49:55.547Z,99.90
2023-04-28T09:52:22.376Z,99.90
2023-04-28T09:54:50.807Z,99.90
2023-04-28T09:57:18.461Z,99.90
2023-04-28T09:59:48.410Z,99.90
2023-04-28T10:02:41.056Z,99.90
2023-04-28T10:05:06.654Z,99.90
2023-04-28T10:07:33.930Z,99.90
2023-04-28T10:10:01.197Z,99.90
2023-04-28T10:12:28.478Z,99.90
2023-04-28T10:14:55.206Z,99.90
2023-04-28T10:17:22.581Z,99.90
2023-04-28T10:19:52.480Z,99.90
2023-04-28T10:22:51.347Z,99.90
2023-04-28T10:25:26.598Z,99.90
2023-04-28T10:27:54.145Z,99.90
2023-04-28T10:30:28.103Z,99.90
2023-04-28T10:33:23.600Z,99.90
2023-04-28T10:35:50.350Z,99.90
2023-04-28T10:38:19.660Z,99.90
2023-04-28T10:40:46.978Z,99.90
2023-04-28T10:43:14.705Z,99.90
2023-04-28T10:46:04.865Z,99.90
2023-04-28T10:48:57.735Z,99.90
2023-04-28T10:51:34.167Z,99.90
2023-04-28T10:54:18.862Z,99.90
2023-04-28T10:57:20.109Z,99.90
2023-04-28T10:59:47.736Z,99.90
2023-04-28T11:02:44.786Z,99.90
2023-04-28T11:05:16.990Z,99.90
2023-04-28T11:08:28.831Z,99.90
2023-04-28T11:11:17.624Z,99.90
2023-04-28T11:13:45.330Z,99.90
2023-04-28T11:16:14.774Z,99.90
2023-04-28T11:18:59.355Z,99.90
2023-04-28T11:21:26.834Z,99.90
2023-04-28T11:23:53.560Z,99.90
2023-04-28T11:26:21.878Z,99.90
2023-04-28T11:28:50.241Z,99.90
2023-04-28T11:31:18.353Z,99.90
2023-04-28T11:33:52.837Z,99.90
2023-04-28T11:36:27.137Z,99.90
2023-04-28T11:38:54.263Z,99.90
2023-04-28T11:41:22.870Z,99.90
2023-04-28T11:43:49.776Z,99.90
2023-04-28T11:46:18.049Z,99.90
2023-04-28T11:48:44.872Z,99.90
2023-04-28T11:51:30.510Z,99.90
2023-04-28T11:53:57.239Z,99.90
2023-04-28T11:56:25.409Z,99.90
2023-04-28T11:59:09.280Z,99.90
2023-04-28T12:01:44.987Z,99.90
2023-04-28T12:04:12.055Z,99.90
2023-04-28T12:06:39.074Z,99.90
2023-04-28T12:09:15.796Z,99.90
2023-04-28T12:11:54.550Z,99.90
2023-04-28T12:14:21.430Z,99.90
2023-04-28T12:16:48.187Z,99.90
2023-04-28T12:19:15.103Z,99.90
2023-04-28T12:21:42.563Z,99.90
2023-04-28T12:24:20.006Z,99.90
2023-04-28T12:26:47.363Z,99.90
2023-04-28T12:29:37.448Z,99.90
2023-04-28T12:32:05.054Z,99.90
2023-04-28T12:34:31.753Z,99.90
2023-04-28T12:36:58.447Z,99.90
2023-04-28T12:39:25.279Z,99.90
2023-04-28T12:41:52.006Z,99.90
2023-04-28T12:44:18.743Z,99.90
2023-04-28T12:46:46.973Z,99.90
2023-04-28T12:49:13.772Z,99.90
2023-04-28T12:51:40.551Z,99.90
2023-04-28T12:54:07.280Z,99.90
2023-04-28T12:56:34.141Z,99.90
2023-04-28T12:59:01.025Z,99.90
2023-04-28T13:01:27.772Z,99.90
2023-04-28T13:03:56.034Z,99.90
2023-04-28T13:06:22.862Z,99.90
2023-04-28T13:08:49.638Z,99.90
2023-04-28T13:11:22.770Z,99.90
2023-04-28T13:13:50.073Z,99.90
2023-04-28T13:16:16.851Z,99.90
2023-04-28T13:18:43.582Z,99.90
2023-04-28T13:21:11.676Z,99.90
2023-04-28T13:23:38.385Z,99.90
2023-04-28T13:26:05.208Z,99.90
2023-04-28T13:28:31.987Z,99.90
2023-04-28T13:30:58.720Z,99.90
2023-04-28T13:33:25.419Z,99.90
2023-04-28T13:35:52.166Z,99.90
2023-04-28T13:38:20.232Z,99.90
2023-04-28T13:40:46.951Z,99.90
2023-04-28T13:43:13.678Z,99.90
2023-04-28T13:45:40.535Z,99.90
2023-04-28T13:48:07.452Z,99.90
2023-04-28T13:50:34.184Z,99.90
2023-04-28T13:53:00.953Z,99.90
2023-04-28T13:55:29.019Z,99.90
2023-04-28T13:57:56.755Z,99.90
2023-04-28T14:00:23.502Z,99.90
2023-04-28T14:02:50.398Z,99.90
2023-04-28T14:05:17.308Z,99.90
2023-04-28T14:07:44.333Z,99.90
2023-04-28T14:10:11.263Z,99.90
2023-04-28T14:12:39.390Z,99.90
2023-04-28T14:15:07.198Z,99.90
2023-04-28T14:17:33.978Z,99.90
2023-04-28T14:20:00.878Z,99.90
2023-04-28T14:22:27.628Z,99.90
2023-04-28T14:24:54.362Z,99.90
2023-04-28T14:27:21.154Z,99.90
2023-04-28T14:29:49.226Z,99.90
2023-04-28T14:32:16.618Z,99.90
2023-04-28T14:34:43.446Z,99.90
2023-04-28T14:37:10.227Z,99.90
2023-04-28T14:39:37.526Z,99.90
2023-04-28T14:42:04.325Z,99.90
2023-04-28T14:44:31.053Z,99.90
2023-04-28T14:46:59.202Z,99.90
2023-04-28T14:49:25.931Z,99.90
2023-04-28T14:51:53.053Z,99.90
2023-04-28T14:54:20.022Z,99.90
2023-04-28T14:56:48.317Z,99.90
2023-04-28T14:59:15.031Z,99.90
2023-04-28T15:01:42.081Z,99.90
2023-04-28T15:04:10.346Z,99.90
2023-04-28T15:06:37.136Z,99.90
2023-04-28T15:09:03.953Z,99.90
2023-04-28T15:11:32.638Z,99.90
2023-04-28T15:13:59.352Z,99.90
2023-04-28T15:16:26.217Z,99.90
2023-04-28T15:18:53.043Z,99.90
2023-04-28T15:21:21.236Z,99.90
2023-04-28T15:23:47.922Z,99.90
2023-04-28T15:26:14.675Z,99.90
2023-04-28T15:28:41.451Z,99.90
2023-04-28T15:31:08.227Z,99.90
2023-04-28T15:33:34.987Z,99.90
2023-04-28T15:36:01.777Z,99.90
2023-04-28T15:38:30.005Z,99.90
2023-04-28T15:40:56.728Z,99.90
2023-04-28T15:43:23.533Z,99.90
2023-04-28T15:45:50.345Z,99.90
2023-04-28T15:48:17.277Z,99.90
2023-04-28T15:50:44.015Z,99.90
2023-04-28T15:53:10.721Z,99.90
2023-04-28T15:55:38.812Z,99.90
2023-04-28T15:58:05.546Z,99.90
2023-04-28T16:00:32.277Z,99.90
2023-04-28T16:02:59.114Z,99.90
2023-04-28T16:05:25.927Z,99.90
2023-04-28T16:07:52.778Z,99.90
2023-04-28T16:10:19.631Z,99.90
2023-04-28T16:12:47.739Z,99.90
2023-04-28T16:15:14.731Z,99.90
2023-04-28T16:17:41.725Z,99.90
2023-04-28T16:20:10.204Z,99.90
2023-04-28T16:22:39.889Z,99.90
2023-04-28T16:25:07.235Z,99.90
2023-04-28T16:27:34.987Z,99.90
2023-04-28T16:30:03.803Z,99.90
2023-04-28T16:32:30.574Z,99.90
2023-04-28T16:34:57.610Z,99.90
2023-04-28T16:37:24.340Z,99.90
2023-04-28T16:39:51.355Z,99.90
2023-04-28T16:42:18.230Z,99.90
2023-04-28T16:44:44.927Z,99.90
2023-04-28T16:47:13.077Z,99.90
2023-04-28T16:49:39.826Z,99.90
2023-04-28T16:52:06.622Z,99.90
2023-04-28T16:54:33.597Z,99.90
2023-04-28T16:57:01.553Z,99.90
2023-04-28T16:59:28.532Z,99.90
2023-04-28T17:01:55.508Z,99.90
2023-04-28T17:04:24.097Z,99.90
2023-04-28T17:06:51.295Z,99.90
2023-04-28T17:09:18.568Z,99.90
2023-04-28T17:11:45.389Z,99.90
2023-04-28T17:14:12.096Z,99.90
2023-04-28T17:16:40.136Z,99.90
2023-04-28T17:19:08.223Z,99.90
2023-04-28T17:21:36.508Z,99.90
2023-04-28T17:24:03.691Z,99.90
2023-04-28T17:26:31.162Z,99.90
2023-04-28T17:28:58.806Z,99.90
2023-04-28T17:31:25.885Z,99.90
2023-04-28T17:33:54.234Z,99.90
2023-04-28T17:36:21.713Z,99.90
2023-04-28T17:38:49.779Z,99.90
2023-04-28T17:41:16.731Z,99.90
2023-04-28T17:43:43.526Z,99.90
2023-04-28T17:46:10.254Z,99.90
2023-04-28T17:48:37.012Z,99.90
2023-04-28T17:51:03.758Z,99.90
2023-04-28T17:53:30.472Z,99.90
2023-04-28T17:56:00.537Z,99.90
2023-04-28T17:58:27.281Z,99.90
2023-04-28T18:00:59.870Z,99.90
2023-04-28T18:03:26.751Z,99.90
2023-04-28T18:05:53.566Z,99.90
2023-04-28T18:08:20.291Z,99.90
2023-04-28T18:10:47.029Z,99.90
2023-04-28T18:13:15.112Z,99.90
2023-04-28T18:15:41.840Z,99.90
2023-04-28T18:18:08.530Z,99.90
2023-04-28T18:20:35.263Z,99.90
2023-04-28T18:23:01.968Z,99.90
2023-04-28T18:25:29.402Z,99.90
2023-04-28T18:27:56.181Z,99.90
2023-04-28T18:30:24.366Z,99.90
2023-04-28T18:32:51.149Z,99.90
2023-04-28T18:35:18.439Z,99.90
2023-04-28T18:37:46.621Z,99.90
2023-04-28T18:40:14.150Z,99.90
2023-04-28T18:42:41.507Z,99.90
2023-04-28T18:47:43.859Z,99.90
2023-04-28T18:50:11.604Z,99.90
2023-04-28T18:52:38.879Z,99.90
2023-04-28T18:55:06.686Z,99.90
2023-04-28T18:57:34.032Z,99.90
2023-04-28T19:00:01.115Z,99.90
2023-04-28T19:02:28.468Z,99.90
2023-04-28T19:04:57.949Z,99.90
2023-04-28T19:07:25.168Z,99.90
2023-04-28T19:09:52.524Z,99.90
2023-04-28T19:12:19.282Z,99.90
2023-04-28T19:14:45.997Z,99.90
2023-04-28T19:17:12.849Z,99.90
2023-04-28T19:19:39.734Z,99.90
2023-04-28T19:22:28.517Z,99.90
2023-04-28T19:24:55.203Z,99.90
2023-04-28T19:27:21.970Z,99.90
2023-04-28T19:29:49.012Z,99.90
2023-04-28T19:32:15.913Z,99.90
2023-04-28T19:34:42.613Z,99.90
2023-04-28T19:37:10.720Z,99.90
2023-04-28T19:39:37.450Z,99.90
2023-04-28T19:42:04.986Z,99.90
2023-04-28T19:44:31.750Z,99.90
2023-04-28T19:46:58.475Z,99.90
2023-04-28T19:49:25.162Z,99.90
2023-04-28T19:51:51.886Z,99.90
2023-04-28T19:54:19.962Z,99.90
2023-04-28T19:56:46.658Z,99.90
2023-04-28T19:59:13.429Z,99.90
2023-04-28T20:01:40.162Z,99.90
2023-04-28T20:04:07.073Z,99.90
2023-04-28T20:06:34.030Z,99.90
2023-04-28T20:09:01.883Z,99.90
2023-04-28T20:11:29.942Z,99.90
2023-04-28T20:13:56.666Z,99.90
2023-04-28T20:16:24.416Z,99.90
2023-04-28T20:18:51.243Z,99.90
2023-04-28T20:21:18.210Z,99.90
2023-04-28T20:23:44.982Z,99.90
2023-04-28T20:26:12.810Z,99.90
2023-04-28T20:28:40.907Z,99.90
2023-04-28T20:31:08.014Z,99.90
2023-04-28T20:33:34.751Z,99.90
2023-04-28T20:36:01.525Z,99.90
2023-04-28T20:38:29.124Z,99.90
2023-04-28T20:40:55.856Z,99.90
2023-04-28T20:43:22.564Z,99.90
2023-04-28T20:45:50.651Z,99.90
2023-04-28T20:48:17.395Z,99.90
2023-04-28T20:50:44.107Z,99.90
2023-04-28T20:53:11.120Z,99.90
2023-04-28T20:55:37.943Z,99.90
2023-04-28T20:58:04.706Z,99.90
2023-04-28T21:00:31.465Z,99.90
2023-04-28T21:02:59.895Z,99.90
2023-04-28T21:05:26.731Z,99.90
2023-04-28T21:07:53.430Z,99.90
2023-04-28T21:10:20.125Z,99.90
2023-04-28T21:12:46.896Z,99.90
2023-04-28T21:15:13.732Z,99.90
2023-04-28T21:17:40.513Z,99.90
2023-04-28T21:20:09.710Z,99.90
2023-04-28T21:22:36.551Z,99.90
2023-04-28T21:25:03.437Z,99.90
2023-04-28T21:27:30.215Z,99.90
2023-04-28T21:29:56.899Z,99.90
2023-04-28T21:32:23.785Z,99.90
2023-04-28T21:34:50.629Z,99.90
2023-04-28T21:37:18.741Z,99.90
2023-04-28T21:39:45.990Z,99.90
2023-04-28T21:42:12.795Z,99.90
2023-04-28T21:44:39.524Z,99.90
2023-04-28T21:47:06.283Z,99.90
2023-04-28T21:49:32.986Z,99.90
2023-04-28T21:51:59.694Z,99.90
2023-04-28T21:54:27.791Z,99.90
2023-04-28T21:56:54.495Z,99.90
2023-04-28T21:59:21.255Z,99.90
2023-04-28T22:01:48.121Z,99.90
2023-04-28T22:04:15.042Z,99.90
2023-04-28T22:06:42.085Z,99.90
2023-04-28T22:09:08.843Z,99.90
2023-04-28T22:11:36.981Z,99.90
2023-04-28T22:14:03.898Z,99.90
2023-04-28T22:16:30.848Z,99.90
2023-04-28T22:18:57.610Z,99.90
2023-04-28T22:21:24.359Z,99.90
2023-04-28T22:23:51.089Z,99.90
2023-04-28T22:26:17.834Z,99.90
2023-04-28T22:28:45.889Z,99.90
2023-04-28T22:31:12.640Z,99.90
2023-04-28T22:33:39.390Z,99.90
2023-04-28T22:36:06.987Z,99.90
2023-04-28T22:38:33.713Z,99.90
2023-04-28T22:41:00.423Z,99.90
2023-04-28T22:43:27.118Z,99.90
2023-04-28T22:45:57.281Z,99.90
2023-04-28T22:48:24.005Z,99.90
2023-04-28T22:50:50.712Z,99.90
2023-04-28T22:53:17.438Z,99.90
2023-04-28T22:55:44.132Z,99.90
2023-04-28T22:58:10.874Z,99.90
2023-04-28T23:00:37.573Z,99.90
2023-04-28T23:03:05.728Z,99.90
2023-04-28T23:05:32.519Z,99.90
2023-04-28T23:07:59.203Z,99.90
2023-04-28T23:10:25.992Z,99.90
2023-04-28T23:12:52.682Z,99.90
2023-04-28T23:15:19.549Z,99.90
2023-04-28T23:17:46.306Z,99.90
2023-04-28T23:20:14.656Z,99.90
2023-04-28T23:22:41.369Z,99.90
2023-04-28T23:25:08.916Z,99.90
2023-04-28T23:27:35.824Z,99.90
2023-04-28T23:30:02.754Z,99.90
2023-04-28T23:32:29.490Z,99.90
2023-04-28T23:34:56.304Z,99.90
2023-04-28T23:37:24.455Z,99.90
2023-04-28T23:39:51.404Z,99.90
2023-04-28T23:42:18.285Z,99.90
2023-04-28T23:44:44.994Z,99.90
2023-04-28T23:47:11.730Z,99.90
2023-04-28T23:49:38.452Z,99.90
2023-04-28T23:52:05.489Z,99.90
2023-04-28T23:54:33.587Z,99.90
2023-04-28T23:57:00.308Z,99.90
2023-04-28T23:59:27.108Z,99.90
